createdAt,value
2017-12-05T00:00:35.812Z,29.50
2017-12-05T00:03:04.066Z,27.97
2017-12-05T00:05:31.606Z,33.40
2017-12-05T00:07:59.131Z,30.63
2017-12-05T00:10:27.360Z,37.77
2017-12-05T00:12:54.914Z,24.30
2017-12-05T00:15:22.379Z,22.87
2017-12-05T00:17:49.888Z,37.57
2017-12-05T00:20:17.347Z,30.73
2017-12-05T00:22:44.828Z,33.93
2017-12-05T00:25:12.350Z,30.80
2017-12-05T00:27:39.778Z,35.30
2017-12-05T00:30:07.278Z,29.60
2017-12-05T00:32:34.793Z,29.87
2017-12-05T00:35:02.311Z,43.50
2017-12-05T00:37:29.860Z,41.43
2017-12-05T00:39:57.292Z,46.07
2017-12-05T00:42:24.740Z,37.80
2017-12-05T00:44:52.364Z,31.60
2017-12-05T00:47:19.765Z,48.80
2017-12-05T00:49:47.283Z,56.70
2017-12-05T00:52:14.694Z,42.03
2017-12-05T00:54:42.228Z,47.17
2017-12-05T00:57:09.687Z,48.50
2017-12-05T00:59:38.034Z,43.43
2017-12-05T01:02:05.526Z,55.13
2017-12-05T01:04:32.998Z,50.80
2017-12-05T01:07:01.252Z,57.67
2017-12-05T01:09:28.707Z,67.57
2017-12-05T01:11:56.239Z,72.70
2017-12-05T01:14:23.684Z,55.93
2017-12-05T01:16:51.191Z,66.73
2017-12-05T01:19:18.659Z,69.70
2017-12-05T01:21:46.128Z,73.30
2017-12-05T01:24:13.701Z,62.83
2017-12-05T01:26:41.155Z,54.17
2017-12-05T01:29:08.626Z,66.13
2017-12-05T01:31:36.105Z,51.93
2017-12-05T01:34:03.658Z,55.33
2017-12-05T01:36:31.172Z,58.20
2017-12-05T01:38:58.669Z,46.17
2017-12-05T01:41:26.174Z,44.87
2017-12-05T01:43:53.742Z,54.33
2017-12-05T01:46:21.218Z,50.67
2017-12-05T01:48:48.660Z,52.43
2017-12-05T01:51:16.916Z,51.77
2017-12-05T01:53:44.386Z,50.77
2017-12-05T01:56:11.852Z,54.37
2017-12-05T01:58:40.164Z,52.53
2017-12-05T02:01:07.639Z,59.57
2017-12-05T02:03:35.155Z,58.50
2017-12-05T02:06:02.689Z,74.63
2017-12-05T02:08:30.133Z,56.70
2017-12-05T02:10:57.589Z,66.47
2017-12-05T02:13:25.178Z,56.27
2017-12-05T02:15:52.603Z,64.10
2017-12-05T02:18:20.128Z,71.67
2017-12-05T02:20:47.670Z,46.73
2017-12-05T02:23:15.097Z,46.67
2017-12-05T02:25:42.560Z,41.50
2017-12-05T02:28:10.076Z,42.00
2017-12-05T02:30:37.691Z,46.13
2017-12-05T02:33:05.073Z,51.00
2017-12-05T02:35:32.539Z,61.87
2017-12-05T02:38:00.028Z,44.27
2017-12-05T02:40:27.535Z,50.33
2017-12-05T02:42:55.050Z,48.03
2017-12-05T02:45:22.477Z,45.53
2017-12-05T02:47:49.954Z,57.10
2017-12-05T02:50:17.439Z,43.07
2017-12-05T02:52:44.903Z,50.37
2017-12-05T02:55:12.380Z,57.60
2017-12-05T02:57:40.642Z,60.80
2017-12-05T03:00:08.060Z,49.87
2017-12-05T03:02:35.616Z,49.27
2017-12-05T03:05:03.123Z,48.33
2017-12-05T03:07:30.580Z,45.97
2017-12-05T03:09:58.019Z,56.13
2017-12-05T03:12:25.548Z,56.87
2017-12-05T03:14:53.035Z,45.53
2017-12-05T03:17:20.556Z,41.40
2017-12-05T03:19:48.013Z,43.30
2017-12-05T03:22:15.472Z,45.77
2017-12-05T03:24:42.978Z,59.13
2017-12-05T03:27:11.318Z,42.73
2017-12-05T03:29:38.797Z,53.83
2017-12-05T03:32:07.197Z,50.43
2017-12-05T03:34:34.660Z,51.70
2017-12-05T03:37:02.204Z,50.00
2017-12-05T03:39:30.424Z,58.63
2017-12-05T03:41:57.913Z,55.50
2017-12-05T03:44:25.396Z,46.97
2017-12-05T03:46:52.861Z,48.67
2017-12-05T03:49:20.357Z,59.17
2017-12-05T03:51:47.817Z,46.87
2017-12-05T03:54:15.269Z,53.83
2017-12-05T03:56:43.511Z,62.53
2017-12-05T03:59:10.962Z,55.40
2017-12-05T04:01:38.460Z,53.20
2017-12-05T04:04:06.687Z,52.10
2017-12-05T04:06:34.175Z,42.53
2017-12-05T04:09:01.645Z,45.60
2017-12-05T04:11:29.119Z,46.63
2017-12-05T04:13:56.574Z,58.83
2017-12-05T04:16:24.097Z,51.93
2017-12-05T04:18:51.543Z,54.50
2017-12-05T04:21:19.077Z,45.00
2017-12-05T04:23:47.298Z,51.50
2017-12-05T04:26:14.775Z,43.73
2017-12-05T04:28:42.223Z,41.10
2017-12-05T04:31:09.734Z,34.07
2017-12-05T04:33:37.247Z,37.57
2017-12-05T04:36:04.771Z,35.50
2017-12-05T04:38:33.078Z,43.00
2017-12-05T04:41:00.532Z,45.77
2017-12-05T04:43:28.081Z,44.93
2017-12-05T04:45:56.377Z,31.57
2017-12-05T04:48:23.862Z,69.83
2017-12-05T04:50:51.366Z,34.40
2017-12-05T04:53:18.778Z,33.53
2017-12-05T04:55:46.276Z,41.83
2017-12-05T04:58:13.783Z,35.03
2017-12-05T05:00:41.220Z,34.03
2017-12-05T05:03:08.775Z,31.03
2017-12-05T05:05:36.213Z,33.37
2017-12-05T05:08:03.700Z,31.07
2017-12-05T05:10:31.157Z,32.00
2017-12-05T05:12:58.693Z,40.57
2017-12-05T05:15:26.214Z,30.33
2017-12-05T05:17:53.769Z,35.20
2017-12-05T05:20:21.197Z,47.33
2017-12-05T05:22:48.739Z,34.80
2017-12-05T05:25:16.182Z,30.60
2017-12-05T05:27:44.416Z,27.37
2017-12-05T05:30:11.940Z,27.03
2017-12-05T05:32:39.424Z,33.17
2017-12-05T05:35:06.886Z,30.87
2017-12-05T05:37:34.384Z,46.20
2017-12-05T05:40:01.852Z,33.53
2017-12-05T05:42:29.355Z,48.83
2017-12-05T05:44:57.620Z,36.80
2017-12-05T05:47:25.917Z,33.43
2017-12-05T05:49:53.454Z,34.67
2017-12-05T05:52:20.912Z,30.10
2017-12-05T05:54:48.438Z,26.80
2017-12-05T05:57:16.101Z,26.47
2017-12-05T05:59:43.569Z,23.17
2017-12-05T06:02:11.052Z,29.67
2017-12-05T06:04:38.596Z,29.40
2017-12-05T06:07:06.123Z,27.73
2017-12-05T06:09:33.769Z,37.00
2017-12-05T06:12:02.059Z,26.80
2017-12-05T06:14:30.310Z,24.97
2017-12-05T06:16:57.858Z,27.90
2017-12-05T06:19:25.372Z,29.10
2017-12-05T06:21:52.807Z,29.23
2017-12-05T06:24:20.263Z,35.60
2017-12-05T06:26:47.755Z,37.97
2017-12-05T06:29:16.055Z,37.13
2017-12-05T06:31:43.538Z,34.57
2017-12-05T06:34:10.986Z,21.30
2017-12-05T06:36:38.676Z,36.30
2017-12-05T06:39:06.891Z,27.73
2017-12-05T06:41:34.338Z,42.40
2017-12-05T06:44:01.869Z,36.03
2017-12-05T06:46:29.332Z,36.50
2017-12-05T06:48:56.824Z,35.73
2017-12-05T06:51:24.278Z,32.73
2017-12-05T06:53:51.787Z,34.83
2017-12-05T06:56:19.269Z,34.20
2017-12-05T06:58:46.792Z,51.37
2017-12-05T07:01:15.079Z,41.30
2017-12-05T07:03:42.550Z,29.93
2017-12-05T07:06:10.023Z,44.80
2017-12-05T07:08:37.541Z,40.07
2017-12-05T07:11:05.070Z,37.17
2017-12-05T07:13:33.278Z,40.70
2017-12-05T07:16:00.866Z,40.30
2017-12-05T07:18:29.113Z,43.73
2017-12-05T07:20:56.614Z,41.37
2017-12-05T07:23:24.078Z,42.23
2017-12-05T07:25:51.584Z,42.10
2017-12-05T07:28:19.158Z,36.90
2017-12-05T07:30:46.574Z,48.67
2017-12-05T07:33:14.833Z,59.70
2017-12-05T07:35:42.326Z,45.27
2017-12-05T07:38:09.906Z,52.70
2017-12-05T07:40:37.391Z,49.00
2017-12-05T07:43:04.865Z,46.17
2017-12-05T07:45:32.420Z,48.80
2017-12-05T07:47:59.923Z,53.77
2017-12-05T07:50:28.202Z,64.17
2017-12-05T07:52:55.726Z,50.17
2017-12-05T07:55:23.237Z,59.17
2017-12-05T07:57:51.460Z,52.13
2017-12-05T08:00:18.935Z,54.93
2017-12-05T08:02:46.445Z,57.50
2017-12-05T08:05:14.712Z,73.50
2017-12-05T08:07:42.206Z,59.17
2017-12-05T08:10:09.675Z,53.80
2017-12-05T08:12:37.131Z,65.90
2017-12-05T08:15:04.802Z,71.93
2017-12-05T08:17:32.333Z,83.47
2017-12-05T08:19:59.794Z,73.20
2017-12-05T08:22:28.038Z,70.50
2017-12-05T08:24:55.569Z,78.60
2017-12-05T08:27:23.114Z,66.50
2017-12-05T08:29:50.581Z,67.67
2017-12-05T08:32:18.835Z,89.10
2017-12-05T08:34:56.330Z,71.30
2017-12-05T08:37:24.583Z,62.90
2017-12-05T08:39:52.071Z,75.30
2017-12-05T08:42:19.611Z,59.67
2017-12-05T08:44:47.113Z,76.13
2017-12-05T08:47:14.577Z,65.07
2017-12-05T08:49:42.072Z,75.10
2017-12-05T08:52:09.648Z,75.13
2017-12-05T08:54:37.144Z,69.93
2017-12-05T08:57:04.684Z,80.07
2017-12-05T08:59:32.256Z,70.43
2017-12-05T09:02:00.428Z,74.30
2017-12-05T09:04:28.049Z,74.57
2017-12-05T09:06:55.642Z,88.17
2017-12-05T09:09:23.108Z,82.63
2017-12-05T09:11:50.700Z,77.20
2017-12-05T09:14:18.196Z,68.83
2017-12-05T09:16:46.431Z,70.70
2017-12-05T09:19:13.924Z,78.47
2017-12-05T09:21:42.334Z,95.23
2017-12-05T09:24:09.758Z,72.57
2017-12-05T09:26:37.229Z,78.97
2017-12-05T09:29:05.010Z,77.30
2017-12-05T09:31:33.333Z,81.67
2017-12-05T09:34:01.627Z,75.77
2017-12-05T09:36:29.078Z,63.63
2017-12-05T09:38:56.776Z,70.77
2017-12-05T09:41:24.349Z,55.77
2017-12-05T09:43:51.816Z,74.87
2017-12-05T09:46:19.342Z,63.73
2017-12-05T09:48:46.881Z,71.00
2017-12-05T09:51:14.525Z,79.10
2017-12-05T09:53:41.968Z,68.10
2017-12-05T09:56:09.535Z,70.77
2017-12-05T09:58:37.031Z,72.20
2017-12-05T10:01:04.560Z,66.00
2017-12-05T10:03:32.009Z,80.50
2017-12-05T10:05:59.564Z,68.70
2017-12-05T10:08:27.055Z,71.50
2017-12-05T10:10:54.588Z,55.07
2017-12-05T10:13:22.158Z,73.00
2017-12-05T10:15:49.594Z,70.37
2017-12-05T10:18:17.040Z,64.40
2017-12-05T10:20:44.570Z,68.80
2017-12-05T10:23:12.073Z,68.50
2017-12-05T10:25:40.429Z,62.03
2017-12-05T10:28:07.877Z,73.50
2017-12-05T10:30:35.407Z,68.73
2017-12-05T10:33:02.893Z,68.23
2017-12-05T10:35:30.604Z,54.10
2017-12-05T10:37:58.179Z,66.53
2017-12-05T10:40:25.773Z,69.87
2017-12-05T10:42:53.309Z,58.77
2017-12-05T10:45:20.758Z,70.03
2017-12-05T10:47:48.196Z,52.20
2017-12-05T10:50:15.757Z,62.63
2017-12-05T10:52:43.209Z,63.60
2017-12-05T10:55:10.740Z,54.30
2017-12-05T10:57:39.001Z,63.07
2017-12-05T11:00:06.759Z,78.47
2017-12-05T11:02:34.261Z,66.37
2017-12-05T11:05:01.731Z,55.43
2017-12-05T11:07:30.019Z,54.10
2017-12-05T11:09:57.481Z,61.37
2017-12-05T11:12:24.973Z,67.40
2017-12-05T11:14:52.483Z,61.80
2017-12-05T11:17:20.746Z,54.70
2017-12-05T11:19:48.165Z,83.87
2017-12-05T11:22:15.670Z,62.30
2017-12-05T11:24:43.180Z,60.47
2017-12-05T11:27:10.650Z,74.40
2017-12-05T11:29:38.834Z,69.87
2017-12-05T11:32:06.404Z,59.33
2017-12-05T11:34:33.992Z,54.90
2017-12-05T11:37:01.433Z,53.87
2017-12-05T11:39:28.944Z,64.47
2017-12-05T11:41:57.188Z,58.83
2017-12-05T11:44:24.685Z,58.07
2017-12-05T11:46:52.913Z,67.43
2017-12-05T11:49:20.411Z,50.73
2017-12-05T11:51:47.833Z,61.57
2017-12-05T11:54:15.442Z,50.63
2017-12-05T11:56:42.858Z,60.60
2017-12-05T11:59:10.404Z,64.87
2017-12-05T12:01:37.866Z,45.53
2017-12-05T12:04:05.334Z,53.33
2017-12-05T12:06:32.880Z,52.40
2017-12-05T12:09:00.412Z,53.00
2017-12-05T12:11:27.881Z,54.87
2017-12-05T12:13:55.369Z,47.63
2017-12-05T12:16:22.936Z,58.60
2017-12-05T12:18:50.489Z,60.57
2017-12-05T12:21:19.957Z,48.07
2017-12-05T12:23:47.621Z,52.33
2017-12-05T12:26:15.056Z,55.93
2017-12-05T12:28:42.537Z,39.97
2017-12-05T12:31:10.087Z,42.53
2017-12-05T12:33:37.588Z,46.60
2017-12-05T12:36:05.173Z,50.10
2017-12-05T12:38:33.029Z,49.33
2017-12-05T12:41:00.543Z,43.20
2017-12-05T12:43:28.072Z,53.37
2017-12-05T12:45:56.338Z,51.47
2017-12-05T12:48:23.834Z,49.87
2017-12-05T12:50:51.321Z,47.23
2017-12-05T12:53:19.542Z,43.33
2017-12-05T12:55:47.060Z,42.83
2017-12-05T12:58:14.498Z,42.43
2017-12-05T13:00:42.047Z,42.67
2017-12-05T13:03:09.553Z,43.13
2017-12-05T13:05:37.200Z,43.70
2017-12-05T13:08:05.680Z,44.60
2017-12-05T13:10:33.140Z,43.57
2017-12-05T13:13:00.608Z,36.13
2017-12-05T13:15:28.205Z,44.63
2017-12-05T13:17:55.778Z,45.70
2017-12-05T13:20:23.297Z,39.73
2017-12-05T13:22:50.776Z,56.93
2017-12-05T13:25:18.419Z,34.63
2017-12-05T13:27:46.512Z,37.10
2017-12-05T13:30:14.271Z,32.83
2017-12-05T13:32:42.565Z,43.93
2017-12-05T13:35:10.266Z,45.20
2017-12-05T13:37:37.850Z,56.90
2017-12-05T13:40:05.408Z,32.47
2017-12-05T13:42:33.113Z,40.37
2017-12-05T13:45:00.895Z,46.07
2017-12-05T13:47:28.437Z,33.43
2017-12-05T13:49:56.027Z,32.70
2017-12-05T13:52:23.619Z,49.73
2017-12-05T13:54:51.262Z,36.97
2017-12-05T13:57:19.052Z,36.77
2017-12-05T13:59:46.774Z,38.57
2017-12-05T14:02:15.088Z,56.03
2017-12-05T14:04:42.707Z,37.40
2017-12-05T14:07:10.193Z,28.27
2017-12-05T14:09:37.771Z,43.47
2017-12-05T14:12:05.274Z,39.10
2017-12-05T14:14:32.799Z,34.80
2017-12-05T14:17:00.281Z,34.83
2017-12-05T14:19:27.887Z,32.23
2017-12-05T14:21:55.418Z,36.07
2017-12-05T14:24:22.925Z,39.03
2017-12-05T14:26:51.655Z,36.63
2017-12-05T14:29:19.215Z,38.83
2017-12-05T14:31:46.700Z,31.37
2017-12-05T14:34:14.198Z,31.50
2017-12-05T14:36:41.635Z,28.30
2017-12-05T14:39:10.180Z,39.57
2017-12-05T14:41:37.777Z,36.63
2017-12-05T14:44:05.314Z,35.17
2017-12-05T14:46:33.012Z,34.17
2017-12-05T14:49:00.825Z,32.00
2017-12-05T14:51:28.361Z,37.43
2017-12-05T14:53:56.652Z,25.93
2017-12-05T14:56:24.206Z,38.47
2017-12-05T14:58:52.000Z,28.30
2017-12-05T15:01:19.600Z,48.10
2017-12-05T15:03:47.076Z,30.43
2017-12-05T15:06:14.520Z,31.37
2017-12-05T15:08:42.264Z,32.63
2017-12-05T15:11:10.486Z,31.13
2017-12-05T15:13:38.086Z,28.53
2017-12-05T15:16:05.601Z,38.20
2017-12-05T15:18:33.210Z,23.70
2017-12-05T15:21:01.635Z,40.43
2017-12-05T15:23:29.874Z,33.27
2017-12-05T15:25:58.150Z,37.63
2017-12-05T15:28:26.404Z,29.60
2017-12-05T15:30:53.921Z,28.97
2017-12-05T15:33:21.511Z,31.77
2017-12-05T15:35:49.054Z,32.63
2017-12-05T15:38:16.541Z,19.37
2017-12-05T15:40:44.252Z,26.87
2017-12-05T15:43:12.534Z,32.07
2017-12-05T15:45:40.749Z,22.23
2017-12-05T15:48:08.225Z,28.80
2017-12-05T15:50:35.746Z,28.87
2017-12-05T15:53:04.051Z,32.70
2017-12-05T15:55:31.499Z,32.10
2017-12-05T15:57:59.028Z,29.23
2017-12-05T16:00:26.513Z,26.23
2017-12-05T16:02:54.771Z,20.80
2017-12-05T16:05:24.370Z,32.37
2017-12-05T16:07:51.931Z,21.10
2017-12-05T16:10:19.515Z,31.63
2017-12-05T16:12:46.973Z,27.20
2017-12-05T16:15:14.462Z,21.47
2017-12-05T16:17:42.033Z,26.57
2017-12-05T16:20:09.533Z,27.10
2017-12-05T16:22:37.036Z,26.00
2017-12-05T16:25:05.336Z,22.03
2017-12-05T16:27:32.876Z,25.10
2017-12-05T16:30:00.347Z,28.40
2017-12-05T16:32:28.635Z,24.97
2017-12-05T16:34:59.893Z,22.43
2017-12-05T16:37:27.362Z,86.17
2017-12-05T16:39:55.614Z,45.00
2017-12-05T16:42:23.107Z,25.20
2017-12-05T16:44:50.666Z,34.93
2017-12-05T16:47:18.899Z,22.70
2017-12-05T16:52:20.559Z,34.23
2017-12-05T16:54:48.050Z,25.70
2017-12-05T16:57:15.529Z,22.53
2017-12-05T16:59:43.016Z,28.87
2017-12-05T17:02:10.689Z,23.77
2017-12-05T17:04:38.193Z,23.53
2017-12-05T17:07:06.483Z,19.33
2017-12-05T17:09:34.765Z,30.47
2017-12-05T17:12:02.276Z,22.23
2017-12-05T17:14:29.728Z,25.80
2017-12-05T17:16:57.256Z,18.33
2017-12-05T17:19:24.732Z,23.77
2017-12-05T17:21:53.061Z,26.67
2017-12-05T17:24:20.543Z,21.73
2017-12-05T17:26:47.998Z,22.93
2017-12-05T17:29:15.577Z,28.03
2017-12-05T17:31:43.055Z,28.13
2017-12-05T17:34:10.532Z,28.37
2017-12-05T17:36:38.062Z,25.33
2017-12-05T17:39:05.534Z,48.07
2017-12-05T17:41:33.748Z,27.50
2017-12-05T17:44:01.267Z,26.87
2017-12-05T17:46:28.756Z,46.00
2017-12-05T17:48:57.148Z,26.63
2017-12-05T17:51:24.631Z,29.33
2017-12-05T17:53:52.823Z,28.83
2017-12-05T17:56:20.399Z,27.37
2017-12-05T17:58:47.841Z,18.97
2017-12-05T18:01:15.348Z,30.30
2017-12-05T18:03:43.672Z,33.47
2017-12-05T18:06:11.917Z,27.50
2017-12-05T18:08:40.169Z,27.13
2017-12-05T18:11:07.687Z,75.77
2017-12-05T18:13:35.164Z,47.57
2017-12-05T18:16:02.665Z,138.13
2017-12-05T18:18:30.128Z,424.10
2017-12-05T18:20:57.739Z,449.73
2017-12-05T18:23:25.208Z,45.17
2017-12-05T18:25:52.668Z,23.17
2017-12-05T18:28:20.139Z,24.67
2017-12-05T18:30:47.657Z,21.97
2017-12-05T18:33:15.163Z,26.20
2017-12-05T18:35:42.620Z,25.07
2017-12-05T18:38:10.136Z,23.97
2017-12-05T18:40:37.616Z,22.53
2017-12-05T18:43:05.132Z,20.67
2017-12-05T18:45:33.367Z,25.67
2017-12-05T18:48:01.659Z,28.03
2017-12-05T18:50:29.926Z,24.33
2017-12-05T18:52:57.499Z,27.40
2017-12-05T18:55:24.998Z,23.20
2017-12-05T18:57:52.657Z,24.33
2017-12-05T19:00:20.223Z,23.43
2017-12-05T19:02:48.127Z,24.10
2017-12-05T19:05:15.598Z,26.60
2017-12-05T19:07:43.085Z,29.13
2017-12-05T19:10:11.453Z,22.47
2017-12-05T19:12:39.058Z,18.13
2017-12-05T19:15:06.586Z,23.00
2017-12-05T19:17:34.094Z,32.50
2017-12-05T19:20:01.540Z,29.23
2017-12-05T19:22:29.789Z,39.07
2017-12-05T19:24:57.335Z,25.03
2017-12-05T19:27:25.070Z,22.60
2017-12-05T19:29:52.759Z,28.37
2017-12-05T19:32:21.247Z,33.47
2017-12-05T19:34:49.508Z,26.80
2017-12-05T19:37:17.754Z,26.00
2017-12-05T19:39:46.040Z,22.07
2017-12-05T19:42:14.314Z,30.27
2017-12-05T19:44:42.735Z,20.20
2017-12-05T19:47:10.215Z,25.83
2017-12-05T19:49:37.652Z,17.30
2017-12-05T19:52:05.147Z,16.27
2017-12-05T19:54:32.667Z,24.70
2017-12-05T19:57:01.012Z,25.57
2017-12-05T19:59:28.502Z,35.63
2017-12-05T20:01:55.985Z,29.97
2017-12-05T20:04:23.770Z,21.40
2017-12-05T20:06:52.022Z,16.90
2017-12-05T20:09:19.534Z,26.60
2017-12-05T20:11:47.038Z,24.40
2017-12-05T20:14:14.494Z,19.87
2017-12-05T20:16:42.004Z,17.03
2017-12-05T20:19:09.556Z,20.97
2017-12-05T20:21:37.078Z,20.90
2017-12-05T20:24:04.607Z,21.47
2017-12-05T20:26:32.061Z,23.80
2017-12-05T20:28:59.536Z,23.03
2017-12-05T20:31:27.737Z,40.23
2017-12-05T20:33:55.254Z,30.03
2017-12-05T20:36:22.837Z,19.80
2017-12-05T20:38:50.377Z,14.63
2017-12-05T20:41:17.892Z,20.47
2017-12-05T20:43:45.467Z,20.97
2017-12-05T20:46:12.932Z,17.47
2017-12-05T20:48:40.418Z,23.60
2017-12-05T20:51:09.110Z,24.80
2017-12-05T20:53:36.788Z,33.33
2017-12-05T20:56:04.257Z,22.80
2017-12-05T20:58:32.899Z,21.07
2017-12-05T21:01:00.334Z,25.67
2017-12-05T21:03:27.803Z,20.87
2017-12-05T21:05:55.363Z,16.13
2017-12-05T21:08:22.804Z,18.53
2017-12-05T21:10:50.361Z,27.63
2017-12-05T21:13:17.805Z,21.07
2017-12-05T21:15:46.107Z,21.87
2017-12-05T21:18:14.349Z,21.97
2017-12-05T21:20:41.792Z,18.87
2017-12-05T21:23:09.239Z,18.20
2017-12-05T21:25:36.742Z,17.70
2017-12-05T21:28:04.329Z,21.00
2017-12-05T21:30:31.813Z,14.30
2017-12-05T21:32:59.325Z,14.80
2017-12-05T21:35:28.161Z,27.87
2017-12-05T21:37:55.740Z,12.77
2017-12-05T21:40:23.193Z,14.80
2017-12-05T21:42:50.712Z,14.20
2017-12-05T21:45:18.204Z,24.37
2017-12-05T21:47:45.727Z,15.33
2017-12-05T21:50:13.141Z,15.33
2017-12-05T21:52:40.611Z,15.10
2017-12-05T21:55:08.097Z,14.87
2017-12-05T21:57:35.624Z,12.23
2017-12-05T22:00:03.210Z,13.87
2017-12-05T22:02:30.787Z,19.90
2017-12-05T22:04:58.302Z,20.17
2017-12-05T22:07:25.815Z,18.20
2017-12-05T22:09:53.324Z,13.27
2017-12-05T22:12:21.672Z,13.73
2017-12-05T22:14:49.211Z,18.70
2017-12-05T22:17:17.404Z,12.80
2017-12-05T22:19:46.420Z,17.90
2017-12-05T22:22:13.961Z,17.10
2017-12-05T22:24:41.421Z,13.83
2017-12-05T22:27:09.042Z,17.97
2017-12-05T22:29:37.273Z,22.00
2017-12-05T22:32:04.773Z,16.90
2017-12-05T22:34:32.999Z,17.33
2017-12-05T22:37:00.453Z,18.10
2017-12-05T22:39:27.994Z,15.80
2017-12-05T22:41:55.392Z,21.30
2017-12-05T22:44:22.943Z,12.33
2017-12-05T22:46:50.440Z,17.40
2017-12-05T22:49:17.906Z,11.80
2017-12-05T22:51:45.423Z,16.53
2017-12-05T22:54:12.866Z,15.87
2017-12-05T22:56:40.332Z,14.87
2017-12-05T22:59:07.874Z,14.03
2017-12-05T23:01:35.394Z,12.87
2017-12-05T23:04:02.945Z,15.90
2017-12-05T23:06:30.432Z,15.33
2017-12-05T23:08:57.910Z,11.50
2017-12-05T23:11:25.413Z,17.57
2017-12-05T23:13:52.901Z,14.10
2017-12-05T23:16:20.429Z,17.33
2017-12-05T23:18:47.867Z,12.67
2017-12-05T23:21:15.340Z,14.20
2017-12-05T23:23:42.944Z,18.70
2017-12-05T23:26:10.452Z,18.77
2017-12-05T23:28:37.943Z,15.50
2017-12-05T23:31:06.173Z,14.57
2017-12-05T23:33:33.756Z,13.30
2017-12-05T23:36:01.173Z,19.13
2017-12-05T23:38:28.645Z,15.97
2017-12-05T23:40:56.131Z,13.50
2017-12-05T23:43:23.875Z,18.97
2017-12-05T23:45:51.146Z,20.17
2017-12-05T23:48:18.674Z,18.83
2017-12-05T23:50:46.154Z,12.80
2017-12-05T23:53:13.705Z,17.60
2017-12-05T23:55:41.173Z,14.23
2017-12-05T23:58:08.741Z,18.33
